createdAt,value
2016-06-08T00:00:18.183Z,74.29
2016-06-08T00:01:18.203Z,74.25
2016-06-08T00:02:18.251Z,74.25
2016-06-08T00:03:18.285Z,74.48
2016-06-08T00:04:18.288Z,74.34
2016-06-08T00:05:18.306Z,74.73
2016-06-08T00:06:18.341Z,74.34
2016-06-08T00:07:18.374Z,74.34
2016-06-08T00:08:18.392Z,74.44
2016-06-08T00:09:18.411Z,74.54
2016-06-08T00:10:18.444Z,74.82
2016-06-08T00:11:18.463Z,74.63
2016-06-08T00:12:18.699Z,74.92
2016-06-08T00:13:18.515Z,74.82
2016-06-08T00:14:18.549Z,74.54
2016-06-08T00:15:18.411Z,74.63
2016-06-08T00:16:18.602Z,74.73
2016-06-08T00:17:18.620Z,74.82
2016-06-08T00:18:18.654Z,74.63
2016-06-08T00:19:18.687Z,74.73
2016-06-08T00:20:18.706Z,74.82
2016-06-08T00:21:18.740Z,74.82
2016-06-08T00:22:18.790Z,74.82
2016-06-08T00:23:18.776Z,75.02
2016-06-08T00:24:18.809Z,75.02
2016-06-08T00:25:18.845Z,74.63
2016-06-08T00:26:18.878Z,74.82
2016-06-08T00:27:19.209Z,74.82
2016-06-08T00:28:18.914Z,74.92
2016-06-08T00:29:18.948Z,74.92
2016-06-08T00:30:18.967Z,74.73
2016-06-08T00:31:18.986Z,74.73
2016-06-08T00:32:19.020Z,74.82
2016-06-08T00:33:19.084Z,74.82
2016-06-08T00:34:19.072Z,74.82
2016-06-08T00:35:19.105Z,75.02
2016-06-08T00:36:19.124Z,74.92
2016-06-08T00:37:19.158Z,74.92
2016-06-08T00:38:19.176Z,74.92
2016-06-08T00:39:19.211Z,75.02
2016-06-08T00:40:19.244Z,75.02
2016-06-08T00:41:19.341Z,74.92
2016-06-08T00:42:19.281Z,74.82
2016-06-08T00:43:19.315Z,75.21
2016-06-08T00:44:19.333Z,75.02
2016-06-08T00:45:19.366Z,75.4
2016-06-08T00:46:19.385Z,75.4
2016-06-08T00:47:19.419Z,75.4
2016-06-08T00:48:19.438Z,75.31
2016-06-08T00:49:19.471Z,75.11
2016-06-08T00:50:19.490Z,75.11
2016-06-08T00:51:19.523Z,75.21
2016-06-08T00:52:19.542Z,75.02
2016-06-08T00:53:19.576Z,75.21
2016-06-08T00:54:19.594Z,75.21
2016-06-08T00:55:19.473Z,75.21
2016-06-08T00:56:20.146Z,75.11
2016-06-08T00:57:19.524Z,75.11
2016-06-08T00:58:19.699Z,75.02
2016-06-08T00:59:19.733Z,75.02
2016-06-08T01:00:19.751Z,75.11
2016-06-08T01:01:19.784Z,75.11
2016-06-08T01:02:19.803Z,75.21
2016-06-08T01:03:19.837Z,75.11
2016-06-08T01:04:19.872Z,75.21
2016-06-08T01:05:19.889Z,75.21
2016-06-08T01:06:19.908Z,75.21
2016-06-08T01:07:19.941Z,74.92
2016-06-08T01:08:19.960Z,75.02
2016-06-08T01:09:19.994Z,75.11
2016-06-08T01:10:20.043Z,75.11
2016-06-08T01:11:19.891Z,75.11
2016-06-08T01:12:20.314Z,75.11
2016-06-08T01:13:20.099Z,74.92
2016-06-08T01:14:20.117Z,75.49
2016-06-08T01:15:20.151Z,74.92
2016-06-08T01:16:20.169Z,75.4
2016-06-08T01:17:20.202Z,74.73
2016-06-08T01:18:20.237Z,74.82
2016-06-08T01:19:20.255Z,74.82
2016-06-08T01:20:20.290Z,74.82
2016-06-08T01:21:20.307Z,75.4
2016-06-08T01:22:20.326Z,75.4
2016-06-08T01:23:20.360Z,75.21
2016-06-08T01:24:20.378Z,74.92
2016-06-08T01:25:20.412Z,75.31
2016-06-08T01:26:21.195Z,74.82
2016-06-08T01:27:20.465Z,74.92
2016-06-08T01:28:20.482Z,75.02
2016-06-08T01:29:20.517Z,74.82
2016-06-08T01:30:20.535Z,74.82
2016-06-08T01:31:20.569Z,74.82
2016-06-08T01:32:20.587Z,75.4
2016-06-08T01:33:20.620Z,75.11
2016-06-08T01:34:20.639Z,74.92
2016-06-08T01:35:20.673Z,75.11
2016-06-08T01:36:20.692Z,75.11
2016-06-08T01:37:20.725Z,75.11
2016-06-08T01:38:20.744Z,75.11
2016-06-08T01:39:20.777Z,75.11
2016-06-08T01:40:20.796Z,75.21
2016-06-08T01:41:21.205Z,74.82
2016-06-08T01:42:21.332Z,75.11
2016-06-08T01:43:20.883Z,75.11
2016-06-08T01:44:20.760Z,74.92
2016-06-08T01:45:20.935Z,75.02
2016-06-08T01:46:21.110Z,75.02
2016-06-08T01:47:21.002Z,75.02
2016-06-08T01:48:21.005Z,74.92
2016-06-08T01:49:21.038Z,74.92
2016-06-08T01:50:21.073Z,75.02
2016-06-08T01:51:21.091Z,74.92
2016-06-08T01:52:21.110Z,74.92
2016-06-08T01:53:21.143Z,75.21
2016-06-08T01:54:21.162Z,75.02
2016-06-08T01:55:21.195Z,75.21
2016-06-08T01:56:21.229Z,75.21
2016-06-08T01:57:21.295Z,75.21
2016-06-08T01:58:21.282Z,75.11
2016-06-08T01:59:21.301Z,75.21
2016-06-08T02:00:21.318Z,75.21
2016-06-08T02:01:21.353Z,75.11
2016-06-08T02:02:21.371Z,75.21
2016-06-08T02:03:21.405Z,75.11
2016-06-08T02:04:21.423Z,75.11
2016-06-08T02:05:21.456Z,75.11
2016-06-08T02:06:21.491Z,75.4
2016-06-08T02:07:21.509Z,75.21
2016-06-08T02:08:21.528Z,75.21
2016-06-08T02:09:21.561Z,75.11
2016-06-08T02:10:21.595Z,75.31
2016-06-08T02:11:21.613Z,75.11
2016-06-08T02:12:21.648Z,75.31
2016-06-08T02:13:21.666Z,75.4
2016-06-08T02:14:21.700Z,75.21
2016-06-08T02:15:21.734Z,75.4
2016-06-08T02:16:21.736Z,75.4
2016-06-08T02:17:21.771Z,75.4
2016-06-08T02:18:21.789Z,75.11
2016-06-08T02:19:21.823Z,75.02
2016-06-08T02:20:21.857Z,74.82
2016-06-08T02:21:21.874Z,74.92
2016-06-08T02:22:21.893Z,74.92
2016-06-08T02:23:21.927Z,74.92
2016-06-08T02:24:21.962Z,74.92
2016-06-08T02:25:21.979Z,75.11
2016-06-08T02:26:22.013Z,74.82
2016-06-08T02:27:22.031Z,75.02
2016-06-08T02:28:22.050Z,74.92
2016-06-08T02:29:22.115Z,74.82
2016-06-08T02:30:22.117Z,74.82
2016-06-08T02:31:22.137Z,74.82
2016-06-08T02:32:22.170Z,74.73
2016-06-08T02:33:22.189Z,74.82
2016-06-08T02:34:22.067Z,74.92
2016-06-08T02:35:22.241Z,74.82
2016-06-08T02:36:22.275Z,74.73
2016-06-08T02:37:22.293Z,74.73
2016-06-08T02:38:22.327Z,74.63
2016-06-08T02:39:22.345Z,74.82
2016-06-08T02:40:22.380Z,74.63
2016-06-08T02:41:22.397Z,74.73
2016-06-08T02:42:23.291Z,74.82
2016-06-08T02:43:22.449Z,74.63
2016-06-08T02:44:22.483Z,74.92
2016-06-08T02:45:22.503Z,74.54
2016-06-08T02:46:22.535Z,74.82
2016-06-08T02:47:22.555Z,74.82
2016-06-08T02:48:22.588Z,74.54
2016-06-08T02:49:22.654Z,74.54
2016-06-08T02:50:22.641Z,74.82
2016-06-08T02:51:22.659Z,74.82
2016-06-08T02:52:22.521Z,74.82
2016-06-08T02:53:22.711Z,74.34
2016-06-08T02:54:22.760Z,74.25
2016-06-08T02:55:22.763Z,74.34
2016-06-08T02:56:22.798Z,74.44
2016-06-08T02:57:23.425Z,74.25
2016-06-08T02:58:22.849Z,74.25
2016-06-08T02:59:22.883Z,74.63
2016-06-08T03:00:22.886Z,74.54
2016-06-08T03:01:22.921Z,74.63
2016-06-08T03:02:22.953Z,74.54
2016-06-08T03:03:22.973Z,74.34
2016-06-08T03:04:23.006Z,74.54
2016-06-08T03:05:23.025Z,74.25
2016-06-08T03:06:23.059Z,74.25
2016-06-08T03:07:23.077Z,74.34
2016-06-08T03:08:23.095Z,74.25
2016-06-08T03:09:23.129Z,74.44
2016-06-08T03:10:23.163Z,74.34
2016-06-08T03:11:23.181Z,74.44
2016-06-08T03:12:23.059Z,74.44
2016-06-08T03:13:23.249Z,74.44
2016-06-08T03:14:23.252Z,74.34
2016-06-08T03:15:23.285Z,74.44
2016-06-08T03:16:23.319Z,74.25
2016-06-08T03:17:23.339Z,74.44
2016-06-08T03:18:23.372Z,74.34
2016-06-08T03:19:23.391Z,74.15
2016-06-08T03:20:23.424Z,74.63
2016-06-08T03:21:23.443Z,74.44
2016-06-08T03:22:23.476Z,74.44
2016-06-08T03:23:23.510Z,74.44
2016-06-08T03:24:23.513Z,74.54
2016-06-08T03:25:23.547Z,74.44
2016-06-08T03:26:23.582Z,74.34
2016-06-08T03:27:23.615Z,74.63
2016-06-08T03:28:23.634Z,74.44
2016-06-08T03:29:23.651Z,74.44
2016-06-08T03:30:23.685Z,74.44
2016-06-08T03:31:23.703Z,74.44
2016-06-08T03:32:23.737Z,74.63
2016-06-08T03:33:23.757Z,74.54
2016-06-08T03:34:23.790Z,73.96
2016-06-08T03:35:23.809Z,74.15
2016-06-08T03:36:23.842Z,74.15
2016-06-08T03:37:23.861Z,74.05
2016-06-08T03:38:23.895Z,74.15
2016-06-08T03:39:23.913Z,73.86
2016-06-08T03:40:23.947Z,74.05
2016-06-08T03:41:23.965Z,74.25
2016-06-08T03:42:24.000Z,74.25
2016-06-08T03:43:24.017Z,73.57
2016-06-08T03:44:24.052Z,73.57
2016-06-08T03:45:24.070Z,73.86
2016-06-08T03:46:25.760Z,73.38
2016-06-08T03:47:24.137Z,73.47
2016-06-08T03:48:24.156Z,73.57
2016-06-08T03:49:24.174Z,74.05
2016-06-08T03:50:24.208Z,73.67
2016-06-08T03:51:24.226Z,73.28
2016-06-08T03:52:24.260Z,73.67
2016-06-08T03:53:24.279Z,73.67
2016-06-08T03:54:24.313Z,73.86
2016-06-08T03:55:24.331Z,73.67
2016-06-08T03:56:24.365Z,73.77
2016-06-08T03:57:24.617Z,73.67
2016-06-08T03:58:24.261Z,73.96
2016-06-08T03:59:24.436Z,73.86
2016-06-08T04:00:24.470Z,73.67
2016-06-08T04:01:24.487Z,73.51
2016-06-08T04:02:24.521Z,73.96
2016-06-08T04:03:24.540Z,73.57
2016-06-08T04:04:24.573Z,73.47
2016-06-08T04:05:24.592Z,73.47
2016-06-08T04:06:24.626Z,73.38
2016-06-08T04:07:24.645Z,73.67
2016-06-08T04:08:24.678Z,73.57
2016-06-08T04:09:24.697Z,73.77
2016-06-08T04:10:24.731Z,73.19
2016-06-08T04:11:24.764Z,73.09
2016-06-08T04:12:24.892Z,73
2016-06-08T04:13:24.800Z,73.19
2016-06-08T04:14:24.836Z,73.19
2016-06-08T04:15:24.854Z,73.28
2016-06-08T04:16:24.888Z,73.28
2016-06-08T04:17:24.905Z,73.28
2016-06-08T04:18:24.939Z,73.32
2016-06-08T04:19:24.958Z,73.32
2016-06-08T04:20:24.991Z,73.38
2016-06-08T04:21:25.057Z,73.32
2016-06-08T04:22:25.044Z,73.28
2016-06-08T04:23:25.063Z,73.28
2016-06-08T04:24:25.096Z,73.42
2016-06-08T04:25:25.115Z,73.47
2016-06-08T04:26:25.149Z,73.13
2016-06-08T04:27:25.010Z,72.84
2016-06-08T04:28:25.201Z,73.61
2016-06-08T04:29:25.234Z,72.71
2016-06-08T04:30:25.254Z,73
2016-06-08T04:31:25.272Z,72.74
2016-06-08T04:32:25.306Z,72.84
2016-06-08T04:33:25.324Z,72.65
2016-06-08T04:34:25.357Z,73.32
2016-06-08T04:35:25.376Z,72.94
2016-06-08T04:36:25.409Z,73.32
2016-06-08T04:37:25.444Z,73.09
2016-06-08T04:38:25.462Z,73.22
2016-06-08T04:39:25.481Z,73.13
2016-06-08T04:40:25.514Z,73.13
2016-06-08T04:41:25.548Z,73.13
2016-06-08T04:42:25.411Z,73.09
2016-06-08T04:43:25.475Z,73.13
2016-06-08T04:44:25.619Z,73.32
2016-06-08T04:45:25.652Z,73.22
2016-06-08T04:46:25.672Z,73.42
2016-06-08T04:47:25.690Z,72.94
2016-06-08T04:48:25.724Z,73.13
2016-06-08T04:49:25.741Z,73.51
2016-06-08T04:50:25.775Z,72.74
2016-06-08T04:51:25.810Z,72.74
2016-06-08T04:52:25.827Z,72.74
2016-06-08T04:53:25.847Z,72.84
2016-06-08T04:54:25.880Z,72.65
2016-06-08T04:55:25.914Z,73.13
2016-06-08T04:56:25.948Z,72.74
2016-06-08T04:57:26.826Z,72.55
2016-06-08T04:58:26.501Z,72.74
2016-06-08T04:59:26.018Z,72.36
2016-06-08T05:00:26.037Z,72.74
2016-06-08T05:01:26.070Z,72.65
2016-06-08T05:02:26.089Z,72.84
2016-06-08T05:03:26.124Z,72.36
2016-06-08T05:04:26.157Z,72.94
2016-06-08T05:05:26.160Z,72.45
2016-06-08T05:06:26.196Z,72.65
2016-06-08T05:07:26.241Z,72.55
2016-06-08T05:08:26.270Z,72.45
2016-06-08T05:09:26.314Z,72.26
2016-06-08T05:10:26.343Z,72.55
2016-06-08T05:11:26.384Z,72.74
2016-06-08T05:12:26.907Z,72.36
2016-06-08T05:13:26.913Z,72.26
2016-06-08T05:14:26.467Z,72.65
2016-06-08T05:15:26.535Z,72.17
2016-06-08T05:16:26.541Z,72.55
2016-06-08T05:17:26.561Z,72.45
2016-06-08T05:18:26.581Z,72.36
2016-06-08T05:19:26.616Z,71.69
2016-06-08T05:20:26.636Z,72.17
2016-06-08T05:21:26.671Z,72.07
2016-06-08T05:22:26.704Z,71.78
2016-06-08T05:23:26.724Z,71.88
2016-06-08T05:24:26.586Z,72.01
2016-06-08T05:25:26.777Z,71.78
2016-06-08T05:26:26.811Z,71.97
2016-06-08T05:27:26.704Z,71.91
2016-06-08T05:28:26.707Z,72.2
2016-06-08T05:29:26.882Z,72.07
2016-06-08T05:30:26.917Z,71.53
2016-06-08T05:31:26.935Z,71.53
2016-06-08T05:32:26.969Z,71.53
2016-06-08T05:33:27.004Z,71.43
2016-06-08T05:34:27.021Z,71.34
2016-06-08T05:35:27.040Z,71.3
2016-06-08T05:36:27.073Z,71.62
2016-06-08T05:37:27.093Z,71.34
2016-06-08T05:38:27.126Z,70.66
2016-06-08T05:39:27.144Z,71.04
2016-06-08T05:40:27.179Z,71.14
2016-06-08T05:41:27.212Z,71.04
2016-06-08T05:42:27.528Z,71.34
2016-06-08T05:43:27.795Z,71.24
2016-06-08T05:44:27.283Z,71.04
2016-06-08T05:45:27.317Z,70.76
2016-06-08T05:46:27.336Z,70.86
2016-06-08T05:47:27.197Z,71.34
2016-06-08T05:48:27.387Z,70.95
2016-06-08T05:49:27.422Z,70.09
2016-06-08T05:50:27.439Z,70.47
2016-06-08T05:51:27.474Z,70.37
2016-06-08T05:52:27.492Z,70.47
2016-06-08T05:53:27.369Z,70.47
2016-06-08T05:54:27.544Z,70.66
2016-06-08T05:55:27.593Z,70.56
2016-06-08T05:56:27.597Z,70.37
2016-06-08T05:57:27.630Z,70.6
2016-06-08T05:58:27.508Z,70.02
2016-06-08T05:59:27.682Z,70.37
2016-06-08T06:00:27.716Z,69.79
2016-06-08T06:01:27.735Z,69.89
2016-06-08T06:02:27.753Z,69.99
2016-06-08T06:03:27.787Z,70.09
2016-06-08T06:04:27.804Z,69.51
2016-06-08T06:05:27.871Z,70.02
2016-06-08T06:06:27.858Z,70.12
2016-06-08T06:07:27.892Z,69.15
2016-06-08T06:08:27.925Z,69.45
2016-06-08T06:09:27.943Z,69.25
2016-06-08T06:10:27.978Z,69.54
2016-06-08T06:11:28.011Z,69.15
2016-06-08T06:12:28.030Z,68.77
2016-06-08T06:13:28.048Z,69.35
2016-06-08T06:14:28.082Z,69.25
2016-06-08T06:15:28.117Z,69.35
2016-06-08T06:16:28.134Z,68.96
2016-06-08T06:17:28.153Z,69.35
2016-06-08T06:18:28.186Z,68.96
2016-06-08T06:19:28.220Z,68.87
2016-06-08T06:20:28.239Z,68.38
2016-06-08T06:21:28.272Z,68.48
2016-06-08T06:22:28.291Z,68.58
2016-06-08T06:23:27.591Z,68.48
2016-06-08T06:24:28.203Z,68.58
2016-06-08T06:25:28.377Z,68.58
2016-06-08T06:26:28.396Z,68.68
2016-06-08T06:27:28.446Z,68.29
2016-06-08T06:28:28.463Z,68.1
2016-06-08T06:29:28.326Z,68.48
2016-06-08T06:30:28.515Z,68.32
2016-06-08T06:31:28.534Z,68.42
2016-06-08T06:32:28.569Z,67.65
2016-06-08T06:33:28.602Z,68.04
2016-06-08T06:34:28.620Z,67.65
2016-06-08T06:35:28.639Z,67.84
2016-06-08T06:36:28.704Z,67.74
2016-06-08T06:37:28.551Z,67.84
2016-06-08T06:38:28.725Z,67.26
2016-06-08T06:39:28.759Z,67.16
2016-06-08T06:40:28.777Z,67.36
2016-06-08T06:41:28.811Z,67.26
2016-06-08T06:42:28.829Z,67.07
2016-06-08T06:43:28.879Z,66.97
2016-06-08T06:44:28.898Z,66.97
2016-06-08T06:45:28.915Z,66.49
2016-06-08T06:46:28.950Z,66.69
2016-06-08T06:47:28.984Z,66.49
2016-06-08T06:48:29.002Z,66.43
2016-06-08T06:49:29.036Z,66.14
2016-06-08T06:50:29.053Z,66.43
2016-06-08T06:51:29.088Z,66.24
2016-06-08T06:52:29.106Z,66.14
2016-06-08T06:53:29.141Z,66.14
2016-06-08T06:54:29.175Z,66.04
2016-06-08T06:55:29.192Z,66.04
2016-06-08T06:56:29.227Z,65.85
2016-06-08T06:57:29.244Z,65.56
2016-06-08T06:58:29.122Z,65.27
2016-06-08T06:59:29.313Z,65.37
2016-06-08T07:00:29.330Z,65.17
2016-06-08T07:01:29.365Z,65.2
2016-06-08T07:02:29.383Z,65.01
2016-06-08T07:03:29.418Z,65.3
2016-06-08T07:04:29.452Z,64.72
2016-06-08T07:05:29.468Z,64.82
2016-06-08T07:06:29.504Z,64.63
2016-06-08T07:07:29.538Z,63.85
2016-06-08T07:08:29.556Z,63.67
2016-06-08T07:09:29.590Z,63.79
2016-06-08T07:10:29.607Z,63.21
2016-06-08T07:11:29.642Z,63.31
2016-06-08T07:12:29.676Z,62.63
2016-06-08T07:13:29.709Z,62.54
2016-06-08T07:14:29.728Z,62.54
2016-06-08T07:15:29.761Z,61.7
2016-06-08T07:16:29.780Z,61.8
2016-06-08T07:17:29.815Z,61.22
2016-06-08T07:18:29.848Z,61.31
2016-06-08T07:19:29.863Z,61.51
2016-06-08T07:20:29.888Z,61.15
2016-06-08T07:21:29.924Z,60.38
2016-06-08T07:22:29.952Z,60.18
2016-06-08T07:23:29.975Z,60.18
2016-06-08T07:24:29.994Z,60.18
2016-06-08T07:25:30.030Z,59.6
2016-06-08T07:26:30.065Z,59.73
2016-06-08T07:27:30.100Z,59.34
2016-06-08T07:28:30.571Z,58.95
2016-06-08T07:29:30.152Z,59.25
2016-06-08T07:30:30.186Z,58.28
2016-06-08T07:31:30.203Z,58.57
2016-06-08T07:32:30.238Z,58.09
2016-06-08T07:33:30.272Z,58.09
2016-06-08T07:34:30.306Z,57.7
2016-06-08T07:35:30.330Z,57.41
2016-06-08T07:36:30.364Z,58.09
2016-06-08T07:37:30.383Z,57.44
2016-06-08T07:38:30.417Z,57.15
2016-06-08T07:39:30.434Z,57.54
2016-06-08T07:40:30.469Z,57.15
2016-06-08T07:41:30.367Z,57.44
2016-06-08T07:42:30.369Z,56.86
2016-06-08T07:43:30.575Z,57.05
2016-06-08T07:44:30.594Z,57.15
2016-06-08T07:45:30.612Z,56.18
2016-06-08T07:46:30.490Z,56.57
2016-06-08T07:47:30.663Z,56.47
2016-06-08T07:48:30.698Z,56.76
2016-06-08T07:49:30.732Z,56.86
2016-06-08T07:50:30.751Z,56.67
2016-06-08T07:51:30.779Z,56.95
2016-06-08T07:52:30.813Z,56.86
2016-06-08T07:53:30.847Z,56.95
2016-06-08T07:54:30.896Z,56.76
2016-06-08T07:55:30.899Z,56.86
2016-06-08T07:56:30.935Z,56.67
2016-06-08T07:57:30.984Z,56.47
2016-06-08T07:58:31.190Z,56.47
2016-06-08T07:59:31.022Z,56.67
2016-06-08T08:00:31.039Z,57.05
2016-06-08T08:01:31.120Z,56.37
2016-06-08T08:02:30.936Z,56.67
2016-06-08T08:03:31.126Z,56.76
2016-06-08T08:04:31.160Z,56.57
2016-06-08T08:05:31.194Z,56.37
2016-06-08T08:06:31.212Z,56.47
2016-06-08T08:07:31.247Z,56.37
2016-06-08T08:08:31.281Z,56.57
2016-06-08T08:09:31.299Z,56.57
2016-06-08T08:10:31.333Z,56.47
2016-06-08T08:11:31.353Z,56.47
2016-06-08T08:12:31.388Z,55.99
2016-06-08T08:13:32.344Z,55.89
2016-06-08T08:14:31.291Z,56.18
2016-06-08T08:15:31.466Z,56.18
2016-06-08T08:16:31.499Z,56.28
2016-06-08T08:17:31.533Z,55.99
2016-06-08T08:18:31.552Z,56.18
2016-06-08T08:19:31.586Z,55.79
2016-06-08T08:20:31.620Z,55.79
2016-06-08T08:21:32.326Z,55.99
2016-06-08T08:22:31.671Z,55.92
2016-06-08T08:23:31.707Z,56.02
2016-06-08T08:24:31.741Z,55.89
2016-06-08T08:25:31.758Z,55.43
2016-06-08T08:26:31.793Z,56.02
2016-06-08T08:27:31.670Z,56.02
2016-06-08T08:28:32.345Z,56.11
2016-06-08T08:29:32.207Z,56.4
2016-06-08T08:30:31.912Z,56.11
2016-06-08T08:31:31.931Z,55.82
2016-06-08T08:32:31.964Z,55.73
2016-06-08T08:33:31.998Z,55.82
2016-06-08T08:34:32.439Z,55.63
2016-06-08T08:35:32.066Z,55.82
2016-06-08T08:36:31.928Z,56.02
2016-06-08T08:37:32.103Z,56.02
2016-06-08T08:38:32.137Z,56.34
2016-06-08T08:39:32.187Z,55.94
2016-06-08T08:40:32.189Z,55.56
2016-06-08T08:41:32.223Z,55.66
2016-06-08T08:42:32.273Z,55.46
2016-06-08T08:43:32.542Z,55.66
2016-06-08T08:44:32.341Z,55.56
2016-06-08T08:45:32.344Z,55.17
2016-06-08T08:46:32.377Z,55.36
2016-06-08T08:47:32.396Z,55.56
2016-06-08T08:48:32.429Z,55.76
2016-06-08T08:49:32.448Z,55.17
2016-06-08T08:50:32.482Z,55.76
2016-06-08T08:51:32.515Z,55.17
2016-06-08T08:52:32.549Z,55
2016-06-08T08:53:32.568Z,55.3
2016-06-08T08:54:32.601Z,55.4
2016-06-08T08:55:32.635Z,55.3
2016-06-08T08:56:32.654Z,55.3
2016-06-08T08:57:32.688Z,55.1
2016-06-08T08:58:32.723Z,54.81
2016-06-08T08:59:32.757Z,54.91
2016-06-08T09:00:32.617Z,54.71
2016-06-08T09:01:32.809Z,54.71
2016-06-08T09:02:32.859Z,55
2016-06-08T09:03:32.861Z,55.58
2016-06-08T09:04:32.895Z,55.49
2016-06-08T09:05:32.928Z,55.49
2016-06-08T09:06:32.947Z,55.4
2016-06-08T09:07:32.981Z,55.3
2016-06-08T09:08:33.014Z,55.4
2016-06-08T09:09:33.048Z,55.4
2016-06-08T09:10:33.067Z,55.13
2016-06-08T09:11:33.116Z,55.49
2016-06-08T09:12:32.978Z,55.42
2016-06-08T09:13:33.013Z,55.71
2016-06-08T09:14:33.187Z,55.81
2016-06-08T09:15:33.221Z,55.52
2016-06-08T09:16:33.239Z,55.32
2016-06-08T09:17:33.305Z,55.13
2016-06-08T09:18:33.307Z,55.04
2016-06-08T09:19:33.341Z,55.22
2016-06-08T09:20:33.375Z,55.62
2016-06-08T09:21:33.410Z,55.42
2016-06-08T09:22:33.427Z,55.44
2016-06-08T09:23:33.461Z,55.74
2016-06-08T09:24:33.479Z,55.74
2016-06-08T09:25:33.513Z,55.06
2016-06-08T09:26:33.548Z,55.26
2016-06-08T09:27:33.566Z,55.35
2016-06-08T09:28:33.740Z,54.86
2016-06-08T09:29:34.117Z,55.16
2016-06-08T09:30:33.668Z,55.35
2016-06-08T09:31:33.686Z,54.77
2016-06-08T09:32:33.720Z,54.86
2016-06-08T09:33:33.753Z,54.77
2016-06-08T09:34:33.787Z,54.96
2016-06-08T09:35:33.806Z,54.96
2016-06-08T09:36:33.839Z,54.48
2016-06-08T09:37:33.873Z,54.48
2016-06-08T09:38:33.892Z,54.48
2016-06-08T09:39:33.926Z,54.67
2016-06-08T09:40:33.961Z,54.7
2016-06-08T09:41:33.994Z,54.8
2016-06-08T09:42:34.012Z,54.5
2016-06-08T09:43:34.047Z,54.11
2016-06-08T09:44:34.081Z,54.58
2016-06-08T09:45:34.114Z,54.6
2016-06-08T09:46:34.133Z,54.11
2016-06-08T09:47:34.166Z,54.11
2016-06-08T09:48:34.200Z,54.11
2016-06-08T09:49:34.219Z,54.21
2016-06-08T09:50:34.252Z,53.73
2016-06-08T09:51:34.302Z,53.73
2016-06-08T09:52:34.320Z,53.73
2016-06-08T09:53:34.339Z,53.73
2016-06-08T09:54:34.373Z,53.83
2016-06-08T09:55:34.407Z,53.83
2016-06-08T09:56:34.268Z,53.92
2016-06-08T09:57:34.459Z,53.53
2016-06-08T09:58:34.509Z,53.73
2016-06-08T09:59:34.620Z,53.73
2016-06-08T10:00:34.545Z,53.83
2016-06-08T10:01:34.595Z,53.83
2016-06-08T10:02:34.613Z,53.92
2016-06-08T10:03:34.647Z,54.11
2016-06-08T10:04:34.681Z,53.24
2016-06-08T10:05:34.699Z,52.86
2016-06-08T10:06:34.734Z,52.73
2016-06-08T10:07:34.768Z,53.02
2016-06-08T10:08:34.785Z,53.02
2016-06-08T10:09:34.820Z,52.73
2016-06-08T10:10:34.853Z,53.02
2016-06-08T10:11:34.887Z,53.41
2016-06-08T10:12:34.906Z,53.41
2016-06-08T10:13:34.939Z,53.61
2016-06-08T10:14:35.130Z,53.02
2016-06-08T10:15:34.992Z,53.41
2016-06-08T10:16:35.026Z,53.22
2016-06-08T10:17:35.060Z,53.51
2016-06-08T10:18:35.093Z,53.99
2016-06-08T10:19:35.127Z,53.89
2016-06-08T10:20:35.146Z,54.09
2016-06-08T10:21:35.180Z,53.8
2016-06-08T10:22:35.198Z,53.8
2016-06-08T10:23:35.232Z,53.99
2016-06-08T10:24:35.265Z,53.61
2016-06-08T10:25:35.299Z,54.28
2016-06-08T10:26:35.334Z,54.09
2016-06-08T10:27:35.352Z,54.38
2016-06-08T10:28:35.386Z,54.28
2016-06-08T10:29:35.560Z,54.06
2016-06-08T10:30:35.454Z,54.64
2016-06-08T10:31:35.472Z,54.74
2016-06-08T10:32:35.507Z,54.45
2016-06-08T10:33:35.384Z,54.64
2016-06-08T10:34:35.418Z,54.55
2016-06-08T10:35:35.592Z,54.64
2016-06-08T10:36:35.626Z,54.64
2016-06-08T10:37:35.660Z,54.45
2016-06-08T10:38:35.679Z,54.84
2016-06-08T10:39:35.712Z,54.26
2016-06-08T10:40:35.590Z,54.64
2016-06-08T10:41:35.781Z,54.84
2016-06-08T10:42:35.798Z,55.42
2016-06-08T10:43:35.833Z,55.04
2016-06-08T10:44:35.992Z,55.04
2016-06-08T10:45:35.900Z,54.84
2016-06-08T10:46:35.919Z,55.04
2016-06-08T10:47:35.952Z,55.4
2016-06-08T10:48:35.986Z,55.22
2016-06-08T10:49:36.052Z,55.3
2016-06-08T10:50:36.070Z,55.2
2016-06-08T10:51:36.088Z,55
2016-06-08T10:52:36.107Z,55.2
2016-06-08T10:53:36.141Z,55.3
2016-06-08T10:54:36.160Z,55.4
2016-06-08T10:55:36.193Z,55.49
2016-06-08T10:56:36.226Z,55.49
2016-06-08T10:57:36.245Z,55.4
2016-06-08T10:58:36.310Z,55.78
2016-06-08T10:59:37.157Z,55.78
2016-06-08T11:00:36.347Z,55.78
2016-06-08T11:01:36.382Z,55.78
2016-06-08T11:02:36.399Z,55.4
2016-06-08T11:03:36.434Z,55.49
2016-06-08T11:04:36.451Z,55.3
2016-06-08T11:05:36.485Z,55.4
2016-06-08T11:06:36.520Z,55.4
2016-06-08T11:07:36.554Z,54.62
2016-06-08T11:08:36.572Z,54.71
2016-06-08T11:09:36.621Z,53.75
2016-06-08T11:10:36.639Z,53.55
2016-06-08T11:11:36.673Z,53.55
2016-06-08T11:12:36.692Z,53.26
2016-06-08T11:13:36.569Z,53.45
2016-06-08T11:14:36.759Z,54.71
2016-06-08T11:15:36.637Z,52.97
2016-06-08T11:16:36.811Z,53.65
2016-06-08T11:17:36.846Z,53.85
2016-06-08T11:18:36.880Z,53.26
2016-06-08T11:19:36.897Z,53.04
2016-06-08T11:20:36.776Z,53.45
2016-06-08T11:21:36.983Z,53.36
2016-06-08T11:22:36.984Z,52.39
2016-06-08T11:23:37.019Z,52.56
2016-06-08T11:24:37.052Z,53.33
2016-06-08T11:25:37.086Z,52.68
2016-06-08T11:26:36.949Z,52.87
2016-06-08T11:27:37.138Z,52.75
2016-06-08T11:28:37.172Z,53.23
2016-06-08T11:29:37.800Z,54.03
2016-06-08T11:30:37.224Z,53.72
2016-06-08T11:31:37.259Z,54.59
2016-06-08T11:32:37.293Z,53.91
2016-06-08T11:33:37.310Z,54.69
2016-06-08T11:34:37.345Z,54.11
2016-06-08T11:35:37.363Z,55.07
2016-06-08T11:36:37.412Z,55.68
2016-06-08T11:37:37.431Z,55.88
2016-06-08T11:38:37.464Z,56.26
2016-06-08T11:39:37.498Z,57.14
2016-06-08T11:40:37.518Z,55.49
2016-06-08T11:41:37.551Z,56.07
2016-06-08T11:42:37.585Z,56.56
2016-06-08T11:43:37.603Z,56.46
2016-06-08T11:44:37.700Z,57.04
2016-06-08T11:45:37.672Z,56.26
2016-06-08T11:46:37.706Z,56.75
2016-06-08T11:47:37.739Z,56.56
2016-06-08T11:48:37.758Z,57.14
2016-06-08T11:49:37.791Z,55.98
2016-06-08T11:50:38.481Z,55.78
2016-06-08T11:51:37.844Z,55
2016-06-08T11:52:37.877Z,55.3
2016-06-08T11:53:37.911Z,55.4
2016-06-08T11:54:37.930Z,55.68
2016-06-08T11:55:37.979Z,56.16
2016-06-08T11:56:37.998Z,54.71
2016-06-08T11:57:38.391Z,55.3
2016-06-08T11:58:38.581Z,55.68
2016-06-08T11:59:38.099Z,54.74
2016-06-08T12:00:38.102Z,54.52
2016-06-08T12:01:38.135Z,54.84
2016-06-08T12:02:38.171Z,52.2
2016-06-08T12:03:38.048Z,52.1
2016-06-08T12:04:38.222Z,52
2016-06-08T12:05:38.257Z,51.64
2016-06-08T12:06:38.290Z,53.39
2016-06-08T12:07:38.340Z,52.32
2016-06-08T12:08:38.343Z,53.29
2016-06-08T12:09:38.376Z,53.87
2016-06-08T12:10:38.410Z,54.55
2016-06-08T12:11:38.429Z,54.26
2016-06-08T12:12:39.119Z,53.49
2016-06-08T12:13:38.497Z,53.02
2016-06-08T12:14:38.375Z,53.97
2016-06-08T12:15:38.564Z,54.86
2016-06-08T12:16:38.426Z,54.55
2016-06-08T12:17:38.617Z,54.28
2016-06-08T12:18:38.650Z,54.19
2016-06-08T12:19:38.684Z,54.58
2016-06-08T12:20:38.702Z,54.77
2016-06-08T12:21:38.736Z,54.19
2016-06-08T12:22:38.771Z,54.28
2016-06-08T12:23:38.789Z,53.89
2016-06-08T12:24:38.822Z,54.19
2016-06-08T12:25:38.857Z,53.7
2016-06-08T12:26:38.719Z,52.34
2016-06-08T12:27:38.753Z,51.37
2016-06-08T12:28:38.944Z,51.37
2016-06-08T12:29:38.977Z,50.31
2016-06-08T12:30:38.995Z,50.79
2016-06-08T12:31:39.030Z,49.92
2016-06-08T12:32:39.063Z,50.31
2016-06-08T12:33:39.082Z,50.12
2016-06-08T12:34:39.115Z,49.92
2016-06-08T12:35:39.149Z,49.63
2016-06-08T12:36:39.168Z,49.73
2016-06-08T12:37:39.248Z,49.73
2016-06-08T12:38:39.235Z,49.05
2016-06-08T12:39:39.254Z,48.27
2016-06-08T12:40:39.287Z,48.57
2016-06-08T12:41:39.322Z,49.15
2016-06-08T12:42:39.340Z,48.76
2016-06-08T12:43:39.374Z,48.57
2016-06-08T12:44:39.439Z,48.18
2016-06-08T12:45:39.426Z,47.89
2016-06-08T12:46:39.461Z,48.27
2016-06-08T12:47:39.494Z,48.66
2016-06-08T12:48:39.512Z,48.57
2016-06-08T12:49:39.547Z,48.76
2016-06-08T12:50:39.564Z,48.37
2016-06-08T12:51:39.599Z,48.18
2016-06-08T12:52:39.633Z,48.08
2016-06-08T12:53:39.666Z,48.27
2016-06-08T12:54:39.685Z,48.57
2016-06-08T12:55:39.719Z,48.57